createdAt,value
2023-01-12T13:11:51.346Z,6.80
2023-01-12T13:14:24.323Z,7.20
2023-01-12T13:16:54.519Z,6.65
2023-01-12T13:19:35.215Z,6.93
2023-01-12T13:22:18.974Z,6.00
2023-01-12T13:24:48.284Z,7.10
2023-01-12T13:27:31.795Z,7.00
2023-01-12T13:30:17.313Z,6.43
2023-01-12T13:32:56.594Z,8.23
2023-01-12T13:35:52.376Z,6.75
2023-01-12T13:38:38.944Z,6.87
2023-01-12T13:41:17.240Z,7.20
2023-01-12T13:43:52.845Z,7.70
2023-01-12T13:46:25.025Z,7.35
2023-01-12T13:48:55.267Z,6.60
2023-01-12T13:51:27.765Z,6.90
2023-01-12T13:54:00.714Z,7.47
2023-01-12T13:56:30.417Z,7.57
2023-01-12T13:59:01.742Z,6.80
2023-01-12T14:01:32.743Z,7.17
2023-01-12T14:04:21.059Z,5.90
2023-01-12T14:06:55.824Z,6.85
2023-01-12T14:09:29.510Z,6.95
2023-01-12T14:12:19.869Z,8.00
2023-01-12T14:15:13.834Z,7.75
2023-01-12T14:17:52.997Z,8.20
2023-01-12T14:20:23.547Z,8.70
2023-01-12T14:23:05.963Z,8.10
2023-01-12T14:25:35.303Z,8.23
2023-01-12T14:28:04.889Z,8.70
2023-01-12T14:30:36.071Z,11.95
2023-01-12T14:33:05.388Z,12.33
2023-01-12T14:35:34.668Z,11.70
2023-01-12T14:38:04.719Z,11.55
2023-01-12T14:40:35.434Z,11.20
2023-01-12T14:43:23.074Z,11.47
2023-01-12T14:46:15.745Z,11.40
2023-01-12T14:48:54.252Z,12.05
2023-01-12T14:51:24.532Z,13.20
2023-01-12T14:53:58.483Z,12.85
2023-01-12T14:56:32.640Z,12.87
2023-01-12T14:59:08.548Z,12.20
2023-01-12T15:01:38.675Z,13.07
2023-01-12T15:04:14.100Z,13.60
2023-01-12T15:06:44.314Z,12.87
2023-01-12T15:09:24.655Z,12.90
2023-01-12T15:11:53.945Z,12.75
2023-01-12T15:14:24.823Z,13.40
2023-01-12T15:17:12.446Z,13.03
2023-01-12T15:19:59.702Z,13.35
2023-01-12T15:22:47.177Z,13.90
2023-01-12T15:25:35.756Z,13.60
2023-01-12T15:28:06.063Z,12.75
2023-01-12T15:30:36.742Z,13.57
2023-01-12T15:33:06.473Z,13.05
2023-01-12T15:35:39.972Z,12.07
2023-01-12T15:38:12.699Z,12.93
2023-01-12T15:40:42.313Z,11.25
2023-01-12T15:43:12.830Z,10.90
2023-01-12T15:45:42.704Z,11.37
2023-01-12T15:48:12.557Z,11.60
2023-01-12T15:50:42.714Z,10.90
2023-01-12T15:53:15.258Z,9.90
2023-01-12T15:55:44.832Z,10.57
2023-01-12T15:58:15.670Z,10.65
2023-01-12T16:00:45.778Z,10.70
2023-01-12T16:03:38.159Z,10.83
2023-01-12T16:06:04.559Z,10.60
2023-01-12T16:08:33.906Z,11.00
2023-01-12T16:11:09.181Z,10.50
2023-01-12T16:13:38.628Z,11.25
2023-01-12T16:16:09.790Z,11.00
2023-01-12T16:18:39.444Z,11.30
2023-01-12T16:21:12.856Z,12.07
2023-01-12T16:23:42.757Z,13.30
2023-01-12T16:26:12.234Z,14.20
2023-01-12T16:28:41.548Z,13.63
2023-01-12T16:31:12.340Z,14.80
2023-01-12T16:33:42.200Z,14.05
2023-01-12T16:36:11.614Z,14.40
2023-01-12T16:38:41.048Z,14.80
2023-01-12T16:41:18.252Z,15.20
2023-01-12T16:43:47.676Z,13.85
2023-01-12T16:46:17.074Z,14.75
2023-01-12T16:48:46.506Z,15.25
2023-01-12T16:51:16.802Z,14.10
2023-01-12T16:53:47.144Z,13.50
2023-01-12T16:56:16.891Z,13.05
2023-01-12T16:58:47.569Z,12.15
2023-01-12T17:01:18.117Z,13.20
2023-01-12T17:03:48.193Z,13.80
2023-01-12T17:06:19.498Z,14.00
2023-01-12T17:08:49.231Z,14.28
2023-01-12T17:11:19.665Z,14.70
2023-01-12T17:13:52.057Z,14.35
2023-01-12T17:16:22.213Z,14.50
2023-01-12T17:18:52.114Z,15.90
2023-01-12T17:21:21.633Z,13.65
2023-01-12T17:23:51.525Z,13.10
2023-01-12T17:26:21.709Z,12.90
2023-01-12T17:28:51.079Z,12.20
2023-01-12T17:31:20.939Z,13.80
2023-01-12T17:33:51.365Z,14.70
2023-01-12T17:36:20.875Z,15.55
2023-01-12T17:38:53.088Z,16.10
2023-01-12T17:41:40.911Z,15.50
2023-01-12T17:44:11.624Z,16.35
2023-01-12T17:46:41.506Z,15.75
2023-01-12T17:49:11.166Z,15.57
2023-01-12T17:51:40.678Z,15.70
2023-01-12T17:54:11.876Z,15.55
2023-01-12T17:56:41.346Z,13.60
2023-01-12T17:59:14.580Z,12.85
2023-01-12T18:01:44.553Z,13.60
2023-01-12T18:04:15.292Z,13.65
2023-01-12T18:06:45.626Z,13.10
2023-01-12T18:09:15.033Z,13.50
2023-01-12T18:11:44.650Z,12.30
2023-01-12T18:14:14.551Z,11.85
2023-01-12T18:16:43.955Z,12.40
2023-01-12T18:19:14.428Z,13.47
2023-01-12T18:21:43.694Z,14.35
2023-01-12T18:24:12.951Z,12.67
2023-01-12T18:26:42.341Z,13.45
2023-01-12T18:29:12.656Z,14.80
2023-01-12T18:31:42.758Z,14.05
2023-01-12T18:34:13.658Z,14.00
2023-01-12T18:36:43.085Z,15.20
2023-01-12T18:39:15.510Z,14.20
2023-01-12T18:42:03.692Z,16.95
2023-01-12T18:44:33.410Z,15.30
2023-01-12T18:47:21.118Z,15.03
2023-01-12T18:49:50.399Z,17.95
2023-01-12T18:52:38.049Z,16.25
2023-01-12T18:55:08.034Z,15.25
2023-01-12T18:57:37.167Z,14.35
2023-01-12T19:00:12.971Z,15.17
2023-01-12T19:02:42.601Z,12.85
2023-01-12T19:05:19.445Z,14.95
2023-01-12T19:08:04.404Z,13.25
2023-01-12T19:10:34.455Z,12.55
2023-01-12T19:13:24.266Z,12.90
2023-01-12T19:16:11.712Z,12.90
2023-01-12T19:18:41.640Z,14.35
2023-01-12T19:21:31.512Z,15.60
2023-01-12T19:24:20.555Z,13.05
2023-01-12T19:27:11.064Z,11.20
2023-01-12T19:29:41.629Z,10.95
2023-01-12T19:32:16.681Z,12.20
2023-01-12T19:34:50.592Z,13.20
2023-01-12T19:37:23.868Z,13.40
2023-01-12T19:40:00.562Z,12.15
2023-01-12T19:42:50.543Z,12.55
2023-01-12T19:45:20.056Z,11.95
2023-01-12T19:47:49.701Z,10.60
2023-01-12T19:50:19.233Z,11.43
2023-01-12T19:52:48.947Z,10.50
2023-01-12T19:55:18.637Z,10.75
2023-01-12T19:57:47.933Z,10.95
2023-01-12T20:00:18.029Z,11.10
2023-01-12T20:02:48.229Z,10.45
2023-01-12T20:05:22.095Z,11.33
2023-01-12T20:07:52.471Z,10.30
2023-01-12T20:10:22.385Z,10.33
2023-01-12T20:12:51.958Z,11.55
2023-01-12T20:15:21.764Z,11.80
2023-01-12T20:17:51.637Z,12.90
2023-01-12T20:20:21.299Z,13.40
2023-01-12T20:22:50.738Z,12.87
2023-01-12T20:25:20.557Z,11.60
2023-01-12T20:27:51.247Z,12.93
2023-01-12T20:33:06.970Z,11.85
2023-01-12T20:35:38.720Z,12.60
2023-01-12T20:38:12.878Z,12.25
2023-01-12T20:40:43.277Z,11.87
2023-01-12T20:43:12.872Z,11.25
2023-01-12T20:45:43.609Z,11.70
2023-01-12T20:48:13.760Z,11.50
2023-01-12T20:50:44.381Z,13.00
2023-01-12T20:53:15.620Z,13.05
2023-01-12T20:55:45.851Z,14.90
2023-01-12T20:58:16.310Z,14.70
2023-01-12T21:00:45.828Z,14.37
2023-01-12T21:03:15.336Z,13.15
2023-01-12T21:05:45.745Z,13.30
2023-01-12T21:08:16.314Z,11.90
2023-01-12T21:10:49.237Z,12.25
2023-01-12T21:13:19.210Z,12.20
2023-01-12T21:15:58.441Z,11.80
2023-01-12T21:18:28.112Z,12.30
2023-01-12T21:20:57.770Z,10.95
2023-01-12T21:23:27.496Z,12.35
2023-01-12T21:25:56.664Z,12.25
2023-01-12T21:28:27.547Z,12.63
2023-01-12T21:31:00.528Z,13.07
2023-01-12T21:33:30.228Z,12.33
2023-01-12T21:36:00.149Z,13.03
2023-01-12T21:38:30.177Z,13.20
2023-01-12T21:41:01.560Z,13.55
2023-01-12T21:43:30.864Z,13.35
2023-01-12T21:46:04.209Z,12.93
2023-01-12T21:48:33.508Z,12.67
2023-01-12T21:51:03.201Z,14.17
2023-01-12T21:53:32.444Z,12.80
2023-01-12T21:56:02.823Z,12.15
2023-01-12T21:58:34.177Z,11.90
2023-01-12T22:01:07.706Z,11.63
2023-01-12T22:03:37.829Z,11.85
2023-01-12T22:06:07.973Z,11.90
2023-01-12T22:08:38.040Z,11.40
2023-01-12T22:11:09.435Z,12.03
2023-01-12T22:13:38.909Z,11.70
2023-01-12T22:16:09.181Z,12.63
2023-01-12T22:18:42.949Z,12.40
2023-01-12T22:21:12.989Z,11.73
2023-01-12T22:23:42.404Z,10.85
2023-01-12T22:26:13.263Z,12.05
2023-01-12T22:28:43.462Z,11.90
2023-01-12T22:31:13.653Z,12.05
2023-01-12T22:33:45.292Z,11.63
2023-01-12T22:36:14.700Z,11.83
2023-01-12T22:38:43.899Z,11.90
2023-01-12T22:41:13.274Z,10.90
2023-01-12T22:43:42.707Z,11.60
2023-01-12T22:46:16.147Z,11.65
2023-01-12T22:48:47.505Z,11.65
2023-01-12T22:51:19.718Z,12.30
2023-01-12T22:53:50.589Z,11.53
2023-01-12T22:56:20.240Z,12.43
2023-01-12T22:58:49.911Z,11.30
2023-01-12T23:01:19.955Z,11.55
2023-01-12T23:03:53.686Z,12.95
2023-01-12T23:06:23.591Z,12.55
2023-01-12T23:08:53.029Z,12.90
2023-01-12T23:11:23.150Z,12.60
2023-01-12T23:13:53.770Z,12.80
2023-01-12T23:16:23.155Z,12.30
2023-01-12T23:18:54.648Z,12.40
2023-01-12T23:21:25.928Z,12.75
2023-01-12T23:23:56.055Z,11.40
2023-01-12T23:26:26.657Z,11.90
2023-01-12T23:28:56.881Z,11.80
2023-01-12T23:31:27.141Z,12.25
2023-01-12T23:33:56.868Z,12.77
2023-01-12T23:36:26.553Z,12.70
2023-01-12T23:38:57.187Z,12.07
2023-01-12T23:41:27.627Z,13.20
2023-01-12T23:43:58.635Z,12.73
2023-01-12T23:46:28.959Z,12.35
2023-01-12T23:49:02.042Z,12.75
2023-01-12T23:51:31.699Z,13.13
2023-01-12T23:54:01.970Z,12.60
2023-01-12T23:56:34.506Z,12.97
